Аэропорт: Адлер. Сочи

ICAO: URSS

METAR:
2020-06-01 01:00:00
URSS 010100Z 00000MPS 9999 NSC 17/10 Q1011 R06/010070 R02/010070 NOSIG RMK R02/02004G07MPS QFE757
METAR:
2020-05-31 22:59:00
TAF URSS 312259Z 0100/0124 05006MPS 9999 SCT030CB BKN100 BECMG 0106/0107 28004G09MPS SCT030 BKN100 BECMG 0116/0117 05005MPS SCT030CB BKN100 TEMPO 0117/0124 3100 -SHRA BR BKN011 SCT020CB BKN100